Time;durP1;ratioP1;P1;durP2;ratioP2;P2;SDS_P1;SDS_P2;PMS_P1;PMS_P2;Temp;Humidity;BMP_temperature;BMP_pressure;BME280_temperature;BME280_humidity;BME280_pressure;Samples;Min_cycle;Max_cycle;Signal;HPM_P1;HPM_P2
2022/12/08 00:01:31;;;;;;;23.77;16.33;;;;;;;9.39;61.25;101218.00;5026503;28;20390;-76
2022/12/08 00:04:01;;;;;;;22.27;14.75;;;;;;;9.29;60.92;101218.09;5042143;28;20381;-77
2022/12/08 00:09:23;;;;;;;24.47;16.60;;;;;;;9.36;60.74;101211.22;5035807;28;20448;-77
2022/12/08 00:11:54;;;;;;;22.40;16.23;;;;;;;9.41;60.88;101220.50;5035467;28;20396;-77
2022/12/08 00:14:23;;;;;;;24.40;16.23;;;;;;;9.43;61.06;101219.38;5042112;28;20399;-76
2022/12/08 00:16:49;;;;;;;22.90;15.65;;;;;;;9.38;61.29;101216.34;5039678;28;20483;-77
2022/12/08 00:19:14;;;;;;;21.95;14.95;;;;;;;9.29;61.05;101220.72;5045805;28;20496;-77
2022/12/08 00:21:40;;;;;;;24.63;16.77;;;;;;;9.19;61.76;101215.50;5043285;28;20389;-77
2022/12/08 00:24:06;;;;;;;22.50;15.40;;;;;;;9.19;61.56;101223.41;5043448;28;20395;-76
2022/12/08 00:26:31;;;;;;;24.70;16.10;;;;;;;9.16;61.42;101220.25;5041226;28;20395;-77
2022/12/08 00:28:57;;;;;;;25.53;17.03;;;;;;;9.25;61.12;101219.34;5030150;28;20458;-77
2022/12/08 00:31:22;;;;;;;22.20;15.80;;;;;;;9.33;61.70;101218.63;5025504;28;20383;-77
2022/12/08 00:33:47;;;;;;;25.43;16.37;;;;;;;9.29;61.76;101206.66;5034585;28;20808;-77
2022/12/08 00:36:14;;;;;;;25.93;16.90;;;;;;;9.28;61.75;101219.06;5030092;28;20448;-77
2022/12/08 00:38:40;;;;;;;22.70;15.52;;;;;;;9.31;61.53;101217.91;5017752;28;20419;-77
2022/12/08 00:41:10;;;;;;;25.20;15.63;;;;;;;9.33;61.23;101215.97;5028248;28;20401;-77
2022/12/08 00:43:36;;;;;;;23.75;16.02;;;;;;;9.47;60.95;101222.53;5043059;28;20390;-77
2022/12/08 00:46:02;;;;;;;24.07;15.67;;;;;;;9.47;60.99;101225.19;5018790;28;20503;-77
2022/12/08 00:48:27;;;;;;;23.17;15.53;;;;;;;9.49;60.80;101220.56;5028689;28;20790;-77
2022/12/08 00:50:55;;;;;;;27.83;18.00;;;;;;;9.45;60.94;101214.75;5020884;28;20419;-77
2022/12/08 00:53:20;;;;;;;30.00;18.83;;;;;;;9.40;61.06;101218.84;5030535;28;20410;-77
2022/12/08 00:55:46;;;;;;;28.73;19.13;;;;;;;9.42;61.06;101209.78;5024450;28;20438;-77
2022/12/08 00:58:11;;;;;;;27.33;18.00;;;;;;;9.38;61.23;101200.47;5020501;28;20757;-77
2022/12/08 01:00:39;;;;;;;28.07;18.30;;;;;;;9.32;61.48;101214.31;5024809;28;20411;-77
2022/12/08 01:03:05;;;;;;;25.88;17.65;;;;;;;9.32;61.63;101207.19;5020695;28;20395;-77
2022/12/08 01:05:30;;;;;;;25.50;17.07;;;;;;;9.36;61.52;101207.72;5032343;28;20711;-77
2022/12/08 01:07:55;;;;;;;30.20;18.47;;;;;;;9.32;62.11;101206.38;5036728;28;20390;-77
2022/12/08 01:10:21;;;;;;;29.50;18.88;;;;;;;9.40;61.54;101214.41;5026333;28;20889;-77
2022/12/08 01:12:47;;;;;;;26.03;17.63;;;;;;;9.46;61.16;101218.25;5018043;28;20824;-77
2022/12/08 01:15:12;;;;;;;25.93;18.03;;;;;;;9.47;61.11;101210.16;5025407;28;20386;-77
2022/12/08 01:17:37;;;;;;;27.05;17.45;;;;;;;9.54;60.83;101220.97;5024399;28;20406;-77
2022/12/08 01:20:04;;;;;;;27.77;18.17;;;;;;;9.59;60.70;101225.81;5041573;28;20401;-77
2022/12/08 01:22:29;;;;;;;25.88;17.60;;;;;;;9.52;61.20;101210.53;5028377;28;20398;-77
2022/12/08 01:24:55;;;;;;;27.30;17.42;;;;;;;9.51;60.83;101210.69;5016817;28;20380;-76
2022/12/08 01:27:20;;;;;;;28.90;17.87;;;;;;;9.47;61.28;101204.03;5030162;28;20390;-76
2022/12/08 01:29:46;;;;;;;30.13;18.67;;;;;;;9.41;61.21;101196.69;5030370;28;20394;-76
2022/12/08 01:32:11;;;;;;;29.08;18.40;;;;;;;9.44;61.35;101202.53;5022882;28;20399;-76
2022/12/08 01:34:37;;;;;;;25.33;17.13;;;;;;;9.53;60.83;101206.91;5028293;28;20402;-77
2022/12/08 01:37:02;;;;;;;25.83;17.80;;;;;;;9.55;61.37;101199.66;5022486;28;20406;-76
2022/12/08 01:39:28;;;;;;;27.70;17.53;;;;;;;9.57;60.89;101204.78;5030216;28;20414;-77
2022/12/08 01:41:54;;;;;;;25.80;17.58;;;;;;;9.57;60.73;101202.13;5025644;28;20405;-77
2022/12/08 01:44:19;;;;;;;26.10;17.43;;;;;;;9.55;61.19;101209.41;5029418;28;20387;-77
2022/12/08 01:46:48;;;;;;;24.40;17.00;;;;;;;9.46;60.94;101208.50;5031038;28;20418;-77
2022/12/08 01:49:19;;;;;;;24.17;16.47;;;;;;;9.47;61.05;101202.22;5026411;28;20398;-76
2022/12/08 01:51:50;;;;;;;27.35;16.38;;;;;;;9.55;60.72;101204.13;5036767;28;20423;-76
2022/12/08 01:54:18;;;;;;;19.52;13.50;;;;;;;9.50;61.23;101199.25;5038737;28;20378;-76
2022/12/08 01:57:01;;;;;;;22.83;14.63;;;;;;;9.56;60.96;101206.63;5026950;28;20407;-77
2022/12/08 01:59:29;;;;;;;21.30;14.23;;;;;;;9.52;60.87;101202.59;5014824;28;20512;-77
2022/12/08 02:01:55;;;;;;;22.60;14.60;;;;;;;9.52;61.15;101204.41;5025805;28;20398;-76
2022/12/08 02:04:21;;;;;;;21.83;13.82;;;;;;;9.37;61.10;101204.94;5023880;28;20469;-77
2022/12/08 02:06:49;;;;;;;24.23;15.13;;;;;;;9.25;61.47;101205.28;5041311;28;20390;-77
2022/12/08 02:09:15;;;;;;;24.15;16.60;;;;;;;9.13;62.03;101197.56;5021015;28;20401;-77
2022/12/08 02:11:41;;;;;;;25.52;15.85;;;;;;;9.14;62.35;101201.88;5044800;28;20481;-77
2022/12/08 02:14:10;;;;;;;25.30;15.77;;;;;;;9.27;61.52;101204.16;5037793;28;20431;-77
2022/12/08 02:17:06;;;;;;;24.08;14.85;;;;;;;9.34;61.77;101194.63;5028353;28;20822;-76
2022/12/08 02:19:41;;;;;;;21.60;14.40;;;;;;;9.38;61.19;101192.53;5019520;28;20493;-77
2022/12/08 02:22:19;;;;;;;22.63;14.52;;;;;;;9.31;61.14;101191.47;5025243;28;20448;-77
2022/12/08 02:25:07;;;;;;;24.90;16.35;;;;;;;9.28;60.85;101197.06;5016629;28;20483;-77
2022/12/08 02:28:04;;;;;;;28.83;19.50;;;;;;;9.20;61.19;101197.81;5027067;28;20393;-77
2022/12/08 02:30:36;;;;;;;26.07;18.40;;;;;;;9.14;61.66;101204.50;5036502;28;20396;-76
2022/12/08 02:33:10;;;;;;;25.15;17.25;;;;;;;9.08;61.62;101204.28;5030485;28;20389;-76
2022/12/08 02:35:47;;;;;;;24.17;15.70;;;;;;;9.01;62.25;101205.88;5043369;28;20446;-77
2022/12/08 02:38:28;;;;;;;19.38;13.55;;;;;;;9.00;62.06;101199.72;5044311;28;20463;-77
2022/12/08 02:41:12;;;;;;;21.88;13.68;;;;;;;9.03;62.06;101195.97;5029584;28;20424;-77
2022/12/08 02:43:43;;;;;;;20.95;12.80;;;;;;;8.99;62.09;101196.25;5028413;28;20405;-77
2022/12/08 02:46:12;;;;;;;21.67;12.25;;;;;;;8.99;61.86;101198.91;5014221;28;20427;-76
2022/12/08 02:48:38;;;;;;;20.23;12.43;;;;;;;8.93;62.44;101190.72;5026539;28;20406;-76
2022/12/08 02:51:03;;;;;;;18.98;11.82;;;;;;;8.85;62.44;101196.75;5027091;28;20482;-77
2022/12/08 02:53:32;;;;;;;19.00;12.63;;;;;;;8.91;62.63;101203.25;5038123;28;20403;-77
2022/12/08 02:56:25;;;;;;;20.88;12.95;;;;;;;8.89;62.64;101200.75;5036858;28;20728;-77
2022/12/08 02:59:15;;;;;;;19.00;12.80;;;;;;;8.87;62.59;101204.53;5029003;28;20407;-78
2022/12/08 03:01:53;;;;;;;21.67;14.23;;;;;;;8.90;62.87;101206.91;5027756;28;20388;-78
2022/12/08 03:04:44;;;;;;;21.38;13.85;;;;;;;8.97;62.78;101214.09;5026553;28;20403;-78
2022/12/08 03:07:36;;;;;;;22.80;14.35;;;;;;;8.80;62.77;101199.84;5015143;28;20394;-77
2022/12/08 03:10:11;;;;;;;21.52;13.98;;;;;;;8.81;63.30;101198.03;5028322;28;20387;-78
2022/12/08 03:12:48;;;;;;;21.30;13.47;;;;;;;8.83;62.47;101203.19;5030940;28;20479;-79
2022/12/08 03:15:18;;;;;;;19.77;13.05;;;;;;;8.87;62.41;101186.03;5031898;28;20632;-80
2022/12/08 03:17:50;;;;;;;21.70;14.55;;;;;;;8.80;63.06;101186.63;5028835;28;20429;-80
2022/12/08 03:20:20;;;;;;;20.05;13.60;;;;;;;8.77;63.01;101194.03;5029616;28;20400;-79
2022/12/08 03:22:48;;;;;;;20.33;13.90;;;;;;;8.84;62.63;101188.97;5025043;28;20783;-79
2022/12/08 03:25:17;;;;;;;20.08;13.90;;;;;;;8.85;62.90;101194.09;5039219;28;20477;-79
2022/12/08 03:27:43;;;;;;;21.27;14.07;;;;;;;8.78;62.77;101183.28;5042843;28;20416;-79
2022/12/08 03:30:09;;;;;;;20.63;14.23;;;;;;;8.68;63.33;101182.50;5049089;28;20919;-80
2022/12/08 03:32:53;;;;;;;19.25;13.52;;;;;;;8.72;63.17;101194.44;5049593;28;20422;-80
2022/12/08 03:35:23;;;;;;;19.95;13.68;;;;;;;8.83;63.13;101198.72;5022342;28;20395;-80
2022/12/08 03:37:49;;;;;;;18.92;13.38;;;;;;;8.85;62.92;101191.47;5026793;28;20494;-79
2022/12/08 03:40:18;;;;;;;20.58;13.95;;;;;;;8.76;62.51;101195.81;5028410;28;20477;-79
2022/12/08 03:42:43;;;;;;;19.30;13.38;;;;;;;8.79;63.07;101197.34;5019807;28;20483;-78
2022/12/08 03:45:09;;;;;;;18.58;12.80;;;;;;;8.70;62.85;101188.47;5040369;28;20499;-78
2022/12/08 03:47:35;;;;;;;25.17;15.75;;;;;;;8.64;63.22;101189.03;5017374;28;20467;-78
2022/12/08 03:50:01;;;;;;;20.20;13.20;;;;;;;8.61;63.33;101197.28;5035723;28;20420;-78
2022/12/08 03:52:26;;;;;;;17.70;11.93;;;;;;;8.67;63.06;101204.63;5040564;28;20920;-78
2022/12/08 03:54:52;;;;;;;18.63;12.53;;;;;;;8.63;62.97;101199.78;5026151;28;20399;-78
2022/12/08 03:57:17;;;;;;;19.03;12.93;;;;;;;8.69;63.23;101204.47;5015729;28;20944;-77
2022/12/08 03:59:43;;;;;;;19.05;13.23;;;;;;;8.76;62.96;101216.13;5036972;28;20392;-77
2022/12/08 04:02:08;;;;;;;19.37;13.13;;;;;;;8.80;62.93;101210.41;5034417;28;20491;-77
2022/12/08 04:04:34;;;;;;;17.97;13.23;;;;;;;8.78;62.67;101211.53;5030397;28;20947;-77
2022/12/08 04:06:59;;;;;;;19.10;13.20;;;;;;;8.73;62.71;101211.97;5041112;28;20392;-77
2022/12/08 04:09:25;;;;;;;17.13;12.37;;;;;;;8.74;63.04;101199.59;5025632;28;20419;-77
2022/12/08 04:11:50;;;;;;;17.00;12.57;;;;;;;8.70;62.54;101203.50;5024888;28;20864;-77
2022/12/08 04:14:15;;;;;;;18.17;12.40;;;;;;;8.74;62.95;101210.16;5018198;28;20394;-76
2022/12/08 04:16:41;;;;;;;17.03;12.40;;;;;;;8.78;62.72;101206.25;5030760;28;20751;-77
2022/12/08 04:19:06;;;;;;;17.35;12.40;;;;;;;8.76;62.79;101206.38;5029325;28;20406;-77
2022/12/08 04:21:32;;;;;;;17.15;12.70;;;;;;;8.79;62.51;101215.84;5029749;28;20419;-76
2022/12/08 04:23:58;;;;;;;22.60;16.00;;;;;;;8.76;62.75;101205.56;5033420;28;20894;-77
2022/12/08 04:26:24;;;;;;;22.70;16.07;;;;;;;8.79;62.59;101205.28;5026015;28;20405;-77
2022/12/08 04:28:49;;;;;;;22.90;17.43;;;;;;;8.76;62.80;101213.50;5052387;28;20384;-77
2022/12/08 04:31:15;;;;;;;20.63;16.50;;;;;;;8.78;62.40;101209.72;5044003;28;20385;-77
2022/12/08 04:33:40;;;;;;;21.23;14.85;;;;;;;8.87;62.33;101210.66;5042884;28;20451;-77
2022/12/08 04:36:07;;;;;;;23.27;15.38;;;;;;;8.90;62.10;101209.53;5044159;28;20735;-77
2022/12/08 04:38:33;;;;;;;21.07;14.57;;;;;;;8.90;62.41;101210.38;5041361;28;20414;-77
2022/12/08 04:40:58;;;;;;;19.43;13.10;;;;;;;8.80;62.41;101210.41;5038064;28;20394;-77
2022/12/08 04:43:24;;;;;;;19.00;13.27;;;;;;;8.75;62.87;101214.44;5043185;28;20385;-77
2022/12/08 04:45:50;;;;;;;18.90;13.45;;;;;;;8.88;62.45;101216.78;5045928;28;20401;-76
2022/12/08 04:48:15;;;;;;;17.77;12.43;;;;;;;8.92;61.71;101212.88;5040748;28;20725;-78
2022/12/08 04:50:42;;;;;;;17.45;12.45;;;;;;;8.92;62.13;101207.56;5038328;28;20445;-76
2022/12/08 04:53:09;;;;;;;18.75;13.25;;;;;;;8.90;62.22;101205.06;5040596;28;20843;-76
2022/12/08 04:55:42;;;;;;;17.42;12.77;;;;;;;8.89;62.11;101213.97;5045830;28;20403;-76
2022/12/08 04:58:12;;;;;;;17.73;13.90;;;;;;;8.91;62.13;101214.69;5043360;28;20557;-76
2022/12/08 05:00:37;;;;;;;16.98;13.02;;;;;;;9.02;62.01;101218.94;5046934;28;20398;-76
2022/12/08 05:03:03;;;;;;;17.77;13.20;;;;;;;9.06;61.20;101215.03;5029603;28;20398;-77
2022/12/08 05:05:28;;;;;;;18.13;13.37;;;;;;;9.11;61.37;101223.34;5031168;28;20873;-77
2022/12/08 05:07:54;;;;;;;17.13;13.20;;;;;;;9.14;61.47;101222.19;5029577;28;20382;-77
2022/12/08 05:10:19;;;;;;;18.23;13.53;;;;;;;9.20;61.45;101211.06;5027756;28;20471;-77
2022/12/08 05:12:45;;;;;;;32.67;28.85;;;;;;;9.20;61.73;101218.97;5028534;28;20749;-77
2022/12/08 05:15:10;;;;;;;19.17;14.30;;;;;;;9.27;60.83;101221.84;5040434;28;20450;-76
2022/12/08 05:17:36;;;;;;;23.70;16.65;;;;;;;9.26;61.39;101213.09;5028617;28;20472;-76
2022/12/08 05:20:01;;;;;;;24.23;16.80;;;;;;;9.22;61.69;101213.53;5029958;28;20418;-77
2022/12/08 05:22:27;;;;;;;20.83;15.00;;;;;;;9.26;61.46;101230.78;5030648;28;20382;-77
2022/12/08 05:24:52;;;;;;;21.53;15.00;;;;;;;9.18;61.18;101220.91;5030318;28;20391;-77
2022/12/08 05:27:18;;;;;;;21.23;16.02;;;;;;;9.14;61.10;101223.03;5026571;28;20397;-77
2022/12/08 05:29:43;;;;;;;21.40;15.07;;;;;;;9.19;61.46;101222.59;5029171;28;20390;-77
2022/12/08 05:32:08;;;;;;;25.33;17.80;;;;;;;9.18;61.61;101221.78;5032347;28;20456;-76
2022/12/08 05:34:34;;;;;;;25.98;19.65;;;;;;;9.15;62.30;101224.72;5018638;28;20751;-76
2022/12/08 05:36:59;;;;;;;26.60;19.13;;;;;;;9.23;61.50;101228.44;5029294;28;20394;-77
2022/12/08 05:39:25;;;;;;;25.37;19.17;;;;;;;9.30;61.69;101235.59;5027244;28;20464;-77
2022/12/08 05:41:50;;;;;;;27.08;19.98;;;;;;;9.29;61.75;101233.97;5031946;28;20394;-77
2022/12/08 05:44:16;;;;;;;26.47;18.73;;;;;;;9.35;61.33;101236.00;5029839;28;20440;-77
2022/12/08 05:46:41;;;;;;;26.80;18.83;;;;;;;9.39;61.06;101239.19;5029461;28;20482;-77
2022/12/08 05:49:07;;;;;;;23.57;17.50;;;;;;;9.33;61.68;101232.69;5027256;28;20390;-77
2022/12/08 05:51:32;;;;;;;25.40;17.27;;;;;;;9.30;61.86;101240.06;5028613;28;20847;-77
2022/12/08 05:53:58;;;;;;;23.98;17.17;;;;;;;9.27;61.36;101230.59;5021007;28;20402;-77
2022/12/08 05:56:23;;;;;;;22.65;15.48;;;;;;;9.25;61.85;101239.69;5018983;28;20858;-77
2022/12/08 05:58:49;;;;;;;25.53;17.80;;;;;;;9.22;61.75;101239.97;5026187;28;21233;-77
2022/12/08 06:01:24;;;;;;;21.30;14.57;;;;;;;9.19;61.75;101238.47;5017282;28;20403;-77
2022/12/08 06:03:50;;;;;;;21.10;14.23;;;;;;;9.06;62.52;101230.06;5031301;28;20382;-77
2022/12/08 06:06:15;;;;;;;22.88;15.27;;;;;;;8.99;62.44;101233.28;5031006;28;20417;-77
2022/12/08 06:08:41;;;;;;;23.80;16.10;;;;;;;9.05;62.51;101247.72;5031449;28;20811;-77
2022/12/08 06:11:06;;;;;;;25.27;16.63;;;;;;;9.12;62.22;101243.50;5030603;28;20451;-77
2022/12/08 06:13:32;;;;;;;22.65;16.40;;;;;;;9.17;62.01;101248.38;5030602;28;20412;-77
2022/12/08 06:16:07;;;;;;;25.53;18.10;;;;;;;9.18;61.75;101256.16;5029990;28;20472;-77
2022/12/08 06:18:32;;;;;;;24.77;17.73;;;;;;;9.23;61.98;101260.16;5030559;28;20405;-77
2022/12/08 06:21:06;;;;;;;24.33;16.53;;;;;;;9.30;61.86;101259.41;5031002;28;20387;-77
2022/12/08 06:23:31;;;;;;;21.88;15.32;;;;;;;9.33;61.55;101258.31;5030940;28;20451;-77
2022/12/08 06:26:10;;;;;;;22.33;15.57;;;;;;;9.35;61.25;101266.94;5028466;28;20776;-77
2022/12/08 06:28:36;;;;;;;21.98;15.55;;;;;;;9.34;61.40;101263.44;5042542;28;20381;-77
2022/12/08 06:31:14;;;;;;;22.77;16.50;;;;;;;9.34;61.78;101257.31;5034532;28;20485;-77
2022/12/08 06:33:40;;;;;;;23.15;16.23;;;;;;;9.33;61.35;101267.06;5031367;28;20854;-77
2022/12/08 06:36:06;;;;;;;22.03;15.30;;;;;;;9.40;61.16;101271.75;5045106;28;20394;-77
2022/12/08 06:38:32;;;;;;;22.13;15.67;;;;;;;9.44;61.54;101289.03;5031114;28;20398;-77
2022/12/08 06:40:58;;;;;;;24.33;17.73;;;;;;;9.39;61.57;101289.44;5029904;28;20428;-77
2022/12/08 06:43:25;;;;;;;28.80;19.75;;;;;;;9.40;61.67;101282.34;5030890;28;20451;-77
2022/12/08 06:45:51;;;;;;;31.27;19.77;;;;;;;9.33;61.71;101288.22;5043579;28;20802;-77
2022/12/08 06:48:17;;;;;;;26.50;17.58;;;;;;;9.37;62.00;101284.31;5036555;28;20861;-77
2022/12/08 06:50:42;;;;;;;30.93;19.63;;;;;;;9.43;61.67;101290.81;5050784;28;20420;-76
2022/12/08 06:53:10;;;;;;;21.83;14.40;;;;;;;9.46;61.60;101289.69;5047589;28;20382;-77
2022/12/08 06:55:36;;;;;;;24.23;16.38;;;;;;;9.42;61.50;101289.16;5040130;28;20384;-77
2022/12/08 06:58:01;;;;;;;22.63;16.20;;;;;;;9.42;61.75;101290.97;5034082;28;20445;-77
2022/12/08 07:00:27;;;;;;;24.65;17.15;;;;;;;9.44;61.15;101286.38;5030660;28;20463;-77
2022/12/08 07:02:52;;;;;;;20.97;14.90;;;;;;;9.45;60.94;101282.72;5030852;28;20374;-77
2022/12/08 07:05:18;;;;;;;26.00;16.60;;;;;;;9.44;61.17;101273.97;5030658;28;20382;-77
2022/12/08 07:07:43;;;;;;;21.95;15.93;;;;;;;9.37;62.10;101284.31;5031025;28;20735;-76
2022/12/08 07:10:09;;;;;;;21.10;14.70;;;;;;;9.30;61.90;101291.16;5044688;28;20386;-77
2022/12/08 07:12:34;;;;;;;20.03;14.37;;;;;;;9.30;61.74;101285.88;5040043;28;20769;-77
2022/12/08 07:15:00;;;;;;;19.88;13.98;;;;;;;9.35;61.90;101288.91;5050281;28;20446;-77
2022/12/08 07:17:25;;;;;;;20.63;14.80;;;;;;;9.45;61.42;101290.66;5043748;28;20379;-77
2022/12/08 07:19:51;;;;;;;20.90;14.50;;;;;;;9.47;61.41;101281.63;5034590;28;20448;-77
2022/12/08 07:22:16;;;;;;;22.50;15.23;;;;;;;9.50;60.93;101289.25;5030269;28;20386;-77
2022/12/08 07:24:41;;;;;;;21.97;15.47;;;;;;;9.45;61.73;101293.31;5029745;28;20392;-76
2022/12/08 07:27:07;;;;;;;22.37;14.73;;;;;;;9.32;62.00;101289.19;5030764;28;20387;-77
2022/12/08 07:29:32;;;;;;;20.45;14.35;;;;;;;9.35;61.96;101296.84;5031056;28;20727;-76
2022/12/08 07:31:58;;;;;;;20.10;15.00;;;;;;;9.49;61.73;101300.81;5031293;28;20383;-77
2022/12/08 07:34:23;;;;;;;22.50;14.70;;;;;;;9.55;61.86;101304.69;5030077;28;20390;-76
2022/12/08 07:36:49;;;;;;;22.75;15.73;;;;;;;9.52;61.33;101292.56;5029391;28;20390;-77
2022/12/08 07:39:14;;;;;;;23.73;16.60;;;;;;;9.49;61.27;101299.97;5030037;28;20418;-77
2022/12/08 07:41:40;;;;;;;23.83;17.10;;;;;;;9.49;61.97;101294.69;5030261;28;20887;-77
2022/12/08 07:44:05;;;;;;;22.17;16.00;;;;;;;9.56;62.09;101301.03;5030110;28;20386;-77
2022/12/08 07:46:30;;;;;;;26.20;17.07;;;;;;;9.59;61.58;101299.94;5029977;28;20446;-77
2022/12/08 07:48:56;;;;;;;24.30;16.30;;;;;;;9.60;61.39;101301.56;5031577;28;20393;-77
2022/12/08 07:51:22;;;;;;;24.15;16.48;;;;;;;9.61;61.55;101306.72;5030391;28;20390;-79
2022/12/08 07:53:49;;;;;;;23.40;15.93;;;;;;;9.66;61.61;101308.94;5029830;28;20383;-76
2022/12/08 07:56:14;;;;;;;23.77;17.07;;;;;;;9.67;61.44;101300.84;5030682;28;20382;-76
2022/12/08 07:58:40;;;;;;;25.73;17.63;;;;;;;9.73;61.88;101308.19;5028828;28;20486;-77
2022/12/08 08:01:16;;;;;;;28.53;19.60;;;;;;;9.77;61.49;101298.94;5030607;28;20481;-77
2022/12/08 08:03:42;;;;;;;30.45;20.42;;;;;;;9.67;61.31;101290.25;5033399;28;20387;-76
2022/12/08 08:06:07;;;;;;;29.97;18.73;;;;;;;9.59;62.02;101292.81;5034156;28;20461;-77
2022/12/08 08:08:33;;;;;;;29.10;20.20;;;;;;;9.63;61.36;101293.34;5030088;28;20381;-76
2022/12/08 08:10:58;;;;;;;28.40;19.58;;;;;;;9.65;61.66;101296.66;5046736;28;20380;-75
2022/12/08 08:13:23;;;;;;;29.27;18.63;;;;;;;9.77;61.39;101312.19;5037527;28;20485;-78
2022/12/08 08:15:49;;;;;;;30.33;20.02;;;;;;;9.85;61.42;101319.41;5045651;28;20398;-76
2022/12/08 08:18:14;;;;;;;30.30;19.87;;;;;;;9.80;61.33;101311.06;5033799;28;20402;-76
2022/12/08 08:20:40;;;;;;;29.13;20.17;;;;;;;9.86;61.17;101320.22;5047646;28;20389;-76
2022/12/08 08:23:05;;;;;;;30.10;20.65;;;;;;;9.90;60.86;101314.50;5040117;28;20443;-76
2022/12/08 08:25:31;;;;;;;29.27;19.47;;;;;;;9.91;60.86;101318.78;5040836;28;20440;-76
2022/12/08 08:27:56;;;;;;;30.27;20.50;;;;;;;9.92;60.69;101319.63;5033614;28;21044;-76
2022/12/08 08:30:22;;;;;;;32.40;20.33;;;;;;;9.82;60.71;101314.41;5034232;28;20386;-78
2022/12/08 08:32:48;;;;;;;31.53;21.60;;;;;;;9.80;61.10;101316.38;5046476;28;20413;-77
2022/12/08 08:35:13;;;;;;;27.83;20.33;;;;;;;9.83;61.40;101315.22;5042522;28;20388;-77
2022/12/08 08:37:39;;;;;;;30.60;21.50;;;;;;;9.81;61.12;101310.06;5050368;28;20473;-77
2022/12/08 08:40:05;;;;;;;32.70;22.17;;;;;;;9.80;61.38;101303.13;5033542;28;20912;-77
2022/12/08 08:42:30;;;;;;;30.63;22.23;;;;;;;9.74;61.28;101298.41;5046698;28;20396;-77
2022/12/08 08:44:56;;;;;;;26.33;18.30;;;;;;;9.68;60.94;101291.09;5044114;28;20383;-77
2022/12/08 08:47:22;;;;;;;27.77;19.63;;;;;;;9.69;61.73;101287.47;5033011;28;20414;-77
2022/12/08 08:49:48;;;;;;;28.05;19.33;;;;;;;9.83;61.83;101291.38;5032652;28;20787;-78
2022/12/08 08:52:13;;;;;;;26.92;19.25;;;;;;;9.90;60.70;101292.44;5028736;28;20384;-78
2022/12/08 08:54:39;;;;;;;31.83;19.63;;;;;;;9.90;61.02;101293.31;5035292;28;20436;-77
2022/12/08 08:57:04;;;;;;;28.87;20.17;;;;;;;9.97;60.79;101287.41;5037088;28;20404;-76
2022/12/08 08:59:30;;;;;;;29.73;20.60;;;;;;;9.98;61.06;101294.38;5053074;28;20452;-78
2022/12/08 09:01:55;;;;;;;30.98;21.20;;;;;;;10.02;61.16;101296.53;5063458;28;20386;-77
2022/12/08 09:04:22;;;;;;;23.17;17.47;;;;;;;9.99;61.15;101286.25;5054650;28;20394;-76
2022/12/08 09:06:48;;;;;;;26.10;17.55;;;;;;;10.03;60.99;101292.06;5040456;28;20406;-77
2022/12/08 09:09:15;;;;;;;24.80;18.55;;;;;;;10.10;60.98;101293.13;5042477;28;20365;-77
2022/12/08 09:11:41;;;;;;;25.73;18.10;;;;;;;9.98;60.68;101284.59;5036529;28;20410;-76
2022/12/08 09:14:10;;;;;;;23.95;17.00;;;;;;;9.93;60.77;101281.56;5032343;28;20821;-76
2022/12/08 09:16:36;;;;;;;24.98;17.08;;;;;;;9.95;61.35;101279.59;5032314;28;20822;-75
2022/12/08 09:19:01;;;;;;;27.67;18.20;;;;;;;10.01;60.94;101272.84;5034110;28;20400;-77
2022/12/08 09:21:27;;;;;;;22.00;15.25;;;;;;;9.98;61.17;101267.88;5045063;28;20375;-76
2022/12/08 09:23:55;;;;;;;21.10;15.37;;;;;;;9.92;61.03;101270.16;5033026;28;20423;-75
2022/12/08 09:26:22;;;;;;;23.60;16.83;;;;;;;10.02;61.04;101269.22;5033026;28;20370;-76
2022/12/08 09:28:50;;;;;;;22.70;16.63;;;;;;;10.04;60.45;101275.22;5032970;28;20376;-77
2022/12/08 09:31:18;;;;;;;24.52;17.40;;;;;;;10.10;61.13;101270.13;5032349;28;20386;-77
2022/12/08 09:33:43;;;;;;;31.38;20.38;;;;;;;10.11;61.23;101269.13;5021407;28;20411;-76
2022/12/08 09:36:10;;;;;;;30.02;21.30;;;;;;;10.09;61.10;101273.75;5029821;28;20499;-76
2022/12/08 09:38:36;;;;;;;28.60;20.25;;;;;;;10.11;61.20;101268.31;5032227;28;20408;-77
2022/12/08 09:41:04;;;;;;;36.63;30.80;;;;;;;10.13;60.89;101261.03;5032102;28;20468;-77
2022/12/08 09:43:52;;;;;;;30.17;20.70;;;;;;;10.20;60.93;101267.38;5043534;28;20922;-77
2022/12/08 09:46:19;;;;;;;24.40;17.02;;;;;;;10.14;60.72;101260.06;5043608;28;20438;-76
2022/12/08 09:48:57;;;;;;;29.52;19.08;;;;;;;10.17;61.23;101256.25;5037213;28;20406;-77
2022/12/08 09:51:29;;;;;;;23.55;16.40;;;;;;;10.21;60.66;101258.47;5034509;28;20389;-77
2022/12/08 09:54:23;;;;;;;24.65;18.02;;;;;;;10.19;60.54;101247.19;5032210;28;20379;-75
2022/12/08 09:56:54;;;;;;;31.42;21.48;;;;;;;10.19;60.52;101249.00;5040829;28;20388;-76
2022/12/08 09:59:30;;;;;;;28.58;20.45;;;;;;;10.21;60.61;101239.06;5032196;28;20500;-76
2022/12/08 10:01:56;;;;;;;30.38;18.77;;;;;;;10.18;60.46;101245.53;5031672;28;20390;-77
2022/12/08 10:04:31;;;;;;;28.67;18.60;;;;;;;10.14;60.18;101231.75;5031649;28;20386;-76
2022/12/08 10:07:08;;;;;;;28.17;19.13;;;;;;;10.11;60.35;101237.34;5031884;28;20375;-77
2022/12/08 10:09:47;;;;;;;30.90;22.00;;;;;;;10.08;60.64;101235.03;5031933;28;20878;-77
2022/12/08 10:12:27;;;;;;;28.48;19.00;;;;;;;10.08;60.21;101231.53;5029168;28;20409;-75
2022/12/08 10:15:15;;;;;;;25.92;18.45;;;;;;;10.10;60.39;101224.25;5031449;28;20843;-77
2022/12/08 10:17:47;;;;;;;28.80;18.80;;;;;;;10.02;60.37;101230.31;5027792;28;20426;-77
2022/12/08 10:20:20;;;;;;;26.77;18.65;;;;;;;10.06;60.72;101218.44;5030752;28;20374;-78
2022/12/08 10:22:55;;;;;;;26.63;17.45;;;;;;;10.12;60.43;101231.06;5036663;28;20377;-77
2022/12/08 10:25:30;;;;;;;25.30;18.05;;;;;;;10.20;60.29;101230.28;5051586;28;20869;-77
2022/12/08 10:27:57;;;;;;;29.45;19.35;;;;;;;10.21;60.15;101218.72;5043960;28;20876;-77
2022/12/08 10:30:23;;;;;;;27.02;17.52;;;;;;;10.16;60.21;101217.53;5031274;28;20393;-77
2022/12/08 10:32:51;;;;;;;25.50;17.95;;;;;;;10.05;60.20;101213.31;5032097;28;20374;-76
2022/12/08 10:35:19;;;;;;;27.58;19.02;;;;;;;10.02;60.63;101211.78;5041156;28;20413;-78
2022/12/08 10:37:56;;;;;;;26.92;18.65;;;;;;;10.02;60.52;101216.25;5031068;28;20494;-79
2022/12/08 10:40:23;;;;;;;23.33;16.30;;;;;;;10.00;60.44;101207.63;5031554;28;20382;-78
2022/12/08 10:42:56;;;;;;;24.30;15.98;;;;;;;9.94;60.39;101215.22;5031376;28;20386;-78
2022/12/08 10:45:42;;;;;;;25.73;17.13;;;;;;;10.00;60.16;101215.59;5031462;28;20736;-76
2022/12/08 10:48:14;;;;;;;24.67;16.23;;;;;;;9.96;60.12;101212.41;5031072;28;20487;-76
2022/12/08 10:50:45;;;;;;;24.58;17.05;;;;;;;9.83;60.20;101204.00;5030402;28;20383;-78
2022/12/08 10:53:31;;;;;;;25.33;16.75;;;;;;;9.78;60.22;101207.13;5030932;28;20397;-76
2022/12/08 10:56:00;;;;;;;25.02;15.68;;;;;;;9.81;60.54;101204.16;5031799;28;20383;-77
2022/12/08 10:58:40;;;;;;;25.27;17.00;;;;;;;9.77;60.29;101205.47;5031024;28;20907;-75
2022/12/08 11:01:31;;;;;;;22.00;13.75;;;;;;;9.80;60.12;101212.28;5031754;28;20386;-77
2022/12/08 11:03:59;;;;;;;18.73;12.80;;;;;;;9.81;60.13;101203.34;5031230;28;20398;-76
2022/12/08 11:06:28;;;;;;;19.92;13.40;;;;;;;9.79;60.01;101198.19;5031237;28;20417;-76
2022/12/08 11:09:02;;;;;;;22.70;14.35;;;;;;;9.79;60.09;101211.44;5031306;28;20466;-78
2022/12/08 11:11:43;;;;;;;22.63;14.90;;;;;;;9.89;59.51;101200.78;5031596;28;20378;-77
2022/12/08 11:14:17;;;;;;;25.38;15.73;;;;;;;9.88;60.14;101204.38;5031349;28;20390;-76
2022/12/08 11:16:43;;;;;;;23.35;15.70;;;;;;;9.93;59.58;101197.66;5031602;28;20531;-78
2022/12/08 11:19:16;;;;;;;24.25;16.05;;;;;;;9.89;60.25;101188.34;5031257;28;20878;-76
2022/12/08 11:21:43;;;;;;;25.73;17.00;;;;;;;9.90;60.17;101184.72;5030888;28;20402;-76
2022/12/08 11:24:21;;;;;;;24.03;15.63;;;;;;;9.99;60.56;101187.44;5044904;28;20368;-76
2022/12/08 11:27:01;;;;;;;24.27;16.27;;;;;;;9.94;60.06;101186.09;5041161;28;20377;-76